createdAt,value
2022-12-05T00:04:06.636Z,5.45
2022-12-05T00:06:35.540Z,4.55
2022-12-05T00:09:04.511Z,5.28
2022-12-05T00:11:34.234Z,4.43
2022-12-05T00:14:03.022Z,4.55
2022-12-05T00:16:33.548Z,4.65
2022-12-05T00:19:02.082Z,4.63
2022-12-05T00:21:36.584Z,3.90
2022-12-05T00:24:06.153Z,4.45
2022-12-05T00:26:34.193Z,4.70
2022-12-05T00:29:01.880Z,4.90
2022-12-05T00:31:29.637Z,5.97
2022-12-05T00:34:00.887Z,5.70
2022-12-05T00:36:30.733Z,5.10
2022-12-05T00:39:05.192Z,4.93
2022-12-05T00:41:32.584Z,5.55
2022-12-05T00:44:01.382Z,4.93
2022-12-05T00:46:31.359Z,5.63
2022-12-05T00:49:00.232Z,5.43
2022-12-05T00:51:34.070Z,5.38
2022-12-05T00:54:04.909Z,5.55
2022-12-05T00:56:32.996Z,5.20
2022-12-05T00:59:01.957Z,4.95
2022-12-05T01:01:39.892Z,5.03
2022-12-05T01:04:10.973Z,5.30
2022-12-05T01:06:38.882Z,4.32
2022-12-05T01:09:07.077Z,4.97
2022-12-05T01:11:40.791Z,4.97
2022-12-05T01:14:10.404Z,4.85
2022-12-05T01:16:39.882Z,5.07
2022-12-05T01:19:11.826Z,4.65
2022-12-05T01:21:39.177Z,5.20
2022-12-05T01:24:06.830Z,5.03
2022-12-05T01:26:34.301Z,5.18
2022-12-05T01:29:01.948Z,5.18
2022-12-05T01:31:32.015Z,5.65
2022-12-05T01:34:02.245Z,5.70
2022-12-05T01:36:30.114Z,5.38
2022-12-05T01:38:58.026Z,5.85
2022-12-05T01:41:31.882Z,5.88
2022-12-05T01:44:08.152Z,5.10
2022-12-05T01:46:37.996Z,5.70
2022-12-05T01:49:12.374Z,5.85
2022-12-05T01:51:43.393Z,5.38
2022-12-05T01:54:11.968Z,4.50
2022-12-05T01:56:42.040Z,4.15
2022-12-05T01:59:11.745Z,6.28
2022-12-05T02:01:40.270Z,7.38
2022-12-05T02:04:08.690Z,6.85
2022-12-05T02:06:36.038Z,7.35
2022-12-05T02:09:03.723Z,7.63
2022-12-05T02:11:33.354Z,7.53
2022-12-05T02:14:37.601Z,6.15
2022-12-05T02:17:23.482Z,5.78
2022-12-05T02:19:53.720Z,5.30
2022-12-05T02:22:39.546Z,5.53
2022-12-05T02:25:17.655Z,5.45
2022-12-05T02:28:23.552Z,5.15
2022-12-05T02:30:58.115Z,4.95
2022-12-05T02:33:47.126Z,4.95
2022-12-05T02:36:21.258Z,4.95
2022-12-05T02:39:07.713Z,5.05
2022-12-05T02:41:47.496Z,5.15
2022-12-05T02:44:32.165Z,5.03
2022-12-05T02:47:00.837Z,4.68
2022-12-05T02:49:32.354Z,4.63
2022-12-05T02:52:02.549Z,4.90
2022-12-05T02:54:38.436Z,4.60
2022-12-05T02:57:09.053Z,5.38
2022-12-05T02:59:36.972Z,5.40
2022-12-05T03:02:04.503Z,5.07
2022-12-05T03:04:31.987Z,4.60
2022-12-05T03:07:12.412Z,5.47
2022-12-05T03:09:46.760Z,5.07
2022-12-05T03:12:29.046Z,5.80
2022-12-05T03:15:22.945Z,5.22
2022-12-05T03:17:59.139Z,4.88
2022-12-05T03:20:50.031Z,4.43
2022-12-05T03:23:39.951Z,4.60
2022-12-05T03:26:33.260Z,5.07
2022-12-05T03:29:07.966Z,5.10
2022-12-05T03:31:52.933Z,5.80
2022-12-05T03:34:38.158Z,5.65
2022-12-05T03:37:11.245Z,5.25
2022-12-05T03:39:44.340Z,4.63
2022-12-05T03:42:21.108Z,4.57
2022-12-05T03:45:00.610Z,4.97
2022-12-05T03:47:55.080Z,4.95
2022-12-05T03:50:29.793Z,5.20
2022-12-05T03:53:20.905Z,4.85
2022-12-05T03:56:06.339Z,5.15
2022-12-05T03:58:39.998Z,4.45
2022-12-05T04:01:10.632Z,4.95
2022-12-05T04:03:46.890Z,5.47
2022-12-05T04:06:25.766Z,5.35
2022-12-05T04:09:05.899Z,5.70
2022-12-05T04:11:36.486Z,4.97
2022-12-05T04:14:23.724Z,4.90
2022-12-05T04:17:04.882Z,4.80
2022-12-05T04:19:52.081Z,5.30
2022-12-05T04:22:21.361Z,5.50
2022-12-05T04:25:08.400Z,5.10
2022-12-05T04:27:54.296Z,4.22
2022-12-05T04:30:24.604Z,4.40
2022-12-05T04:33:10.042Z,4.30
2022-12-05T04:35:37.268Z,3.92
2022-12-05T04:38:13.185Z,3.70
2022-12-05T04:40:48.960Z,4.00
2022-12-05T04:43:19.654Z,3.90
2022-12-05T04:45:49.426Z,4.00
2022-12-05T04:48:18.177Z,4.40
2022-12-05T04:50:48.519Z,4.10
2022-12-05T04:53:18.302Z,3.90
2022-12-05T04:55:51.174Z,3.88
2022-12-05T04:58:24.336Z,3.78
2022-12-05T05:00:59.325Z,3.60
2022-12-05T05:03:26.573Z,3.97
2022-12-05T05:05:56.461Z,4.07
2022-12-05T05:08:27.667Z,3.75
2022-12-05T05:11:01.781Z,3.90
2022-12-05T05:13:29.099Z,3.78
2022-12-05T05:15:56.516Z,4.00
2022-12-05T05:18:23.867Z,4.00
2022-12-05T05:20:51.200Z,4.20
2022-12-05T05:23:18.605Z,4.45
2022-12-05T05:25:46.193Z,4.80
2022-12-05T05:28:13.847Z,4.35
2022-12-05T05:30:41.111Z,3.83
2022-12-05T05:33:08.489Z,4.10
2022-12-05T05:35:38.922Z,4.55
2022-12-05T05:38:06.350Z,4.13
2022-12-05T05:40:36.665Z,4.50
2022-12-05T05:43:04.320Z,4.32
2022-12-05T05:45:31.698Z,3.92
2022-12-05T05:47:59.052Z,3.75
2022-12-05T05:50:26.332Z,4.00
2022-12-05T05:52:54.525Z,4.00
2022-12-05T05:55:22.011Z,4.00
2022-12-05T05:57:49.307Z,3.90
2022-12-05T06:00:16.963Z,4.03
2022-12-05T06:02:44.444Z,4.57
2022-12-05T06:05:11.973Z,4.50
2022-12-05T06:07:39.387Z,4.72
2022-12-05T06:10:07.292Z,4.55
2022-12-05T06:12:34.620Z,4.70
2022-12-05T06:15:01.933Z,4.97
2022-12-05T06:17:30.366Z,4.90
2022-12-05T06:19:57.868Z,4.55
2022-12-05T06:22:25.441Z,4.57
2022-12-05T06:24:52.772Z,4.80
2022-12-05T06:27:20.117Z,4.90
2022-12-05T06:29:47.488Z,5.95
2022-12-05T06:32:14.830Z,6.50
2022-12-05T06:34:42.234Z,5.82
2022-12-05T06:37:09.647Z,6.13
2022-12-05T06:39:37.071Z,7.47
2022-12-05T06:42:05.294Z,6.53
2022-12-05T06:44:32.676Z,7.05
2022-12-05T06:47:00.294Z,7.30
2022-12-05T06:49:36.416Z,7.05
2022-12-05T06:52:05.378Z,6.63
2022-12-05T06:54:32.851Z,6.20
2022-12-05T06:57:00.155Z,6.53
2022-12-05T06:59:27.487Z,6.50
2022-12-05T07:01:54.949Z,6.13
2022-12-05T07:04:24.623Z,6.40
2022-12-05T07:06:54.381Z,6.60
2022-12-05T07:09:44.557Z,5.90
2022-12-05T07:12:13.763Z,5.70
2022-12-05T07:14:49.605Z,6.25
2022-12-05T07:17:22.079Z,6.22
2022-12-05T07:19:50.866Z,5.35
2022-12-05T07:22:20.321Z,4.97
2022-12-05T07:24:48.564Z,5.22
2022-12-05T07:27:17.653Z,5.35
2022-12-05T07:29:46.866Z,5.15
2022-12-05T07:32:14.323Z,4.90
2022-12-05T07:34:42.367Z,4.85
2022-12-05T07:37:09.751Z,4.90
2022-12-05T07:39:37.156Z,4.97
2022-12-05T07:42:04.655Z,4.15
2022-12-05T07:44:32.602Z,5.32
2022-12-05T07:46:59.978Z,5.38
2022-12-05T07:49:27.437Z,5.90
2022-12-05T07:51:54.740Z,5.13
2022-12-05T07:54:22.132Z,5.70
2022-12-05T07:56:49.462Z,5.07
2022-12-05T07:59:16.809Z,4.90
2022-12-05T08:01:44.172Z,5.10
2022-12-05T08:04:15.284Z,5.30
2022-12-05T08:06:43.792Z,5.78
2022-12-05T08:09:11.209Z,5.28
2022-12-05T08:11:38.671Z,4.80
2022-12-05T08:14:07.925Z,5.30
2022-12-05T08:16:35.255Z,4.50
2022-12-05T08:19:05.294Z,5.95
2022-12-05T08:24:00.161Z,4.50
2022-12-05T08:26:30.377Z,5.35
2022-12-05T08:29:02.191Z,4.90
2022-12-05T08:31:31.941Z,5.93
2022-12-05T08:34:00.902Z,5.82
2022-12-05T08:36:30.521Z,4.80
2022-12-05T08:38:59.819Z,4.53
2022-12-05T08:41:30.151Z,6.63
2022-12-05T08:44:03.198Z,5.65
2022-12-05T08:46:32.572Z,4.90
2022-12-05T08:48:59.945Z,5.43
2022-12-05T08:51:27.268Z,5.00
2022-12-05T08:53:56.444Z,4.80
2022-12-05T08:56:27.169Z,5.43
2022-12-05T08:59:01.414Z,4.13
2022-12-05T09:01:33.338Z,4.72
2022-12-05T09:04:01.533Z,7.13
2022-12-05T09:06:29.912Z,6.07
2022-12-05T09:09:05.736Z,13.80
2022-12-05T09:11:35.825Z,11.88
2022-12-05T09:14:04.889Z,8.30
2022-12-05T09:16:38.351Z,8.10
2022-12-05T09:19:15.644Z,6.80
2022-12-05T09:21:43.937Z,4.80
2022-12-05T09:24:12.795Z,7.40
2022-12-05T09:26:40.847Z,5.57
2022-12-05T09:29:15.521Z,7.82
2022-12-05T09:31:44.825Z,5.45
2022-12-05T09:34:14.215Z,9.50
2022-12-05T09:36:43.707Z,6.22
2022-12-05T09:39:11.736Z,6.72
2022-12-05T09:42:09.418Z,5.30
2022-12-05T09:44:50.841Z,6.55
2022-12-05T09:47:39.993Z,5.47
2022-12-05T09:50:21.886Z,5.67
2022-12-05T09:53:01.470Z,5.57
2022-12-05T09:55:36.480Z,5.70
2022-12-05T09:58:12.485Z,5.20
2022-12-05T10:00:40.609Z,5.60
2022-12-05T10:03:50.010Z,5.35
2022-12-05T10:06:40.304Z,5.03
2022-12-05T10:09:34.640Z,5.50
2022-12-05T10:12:10.900Z,4.60
2022-12-05T10:15:12.933Z,4.68
2022-12-05T10:17:46.889Z,5.40
2022-12-05T10:20:19.327Z,5.50
2022-12-05T10:23:34.645Z,5.07
2022-12-05T10:26:07.873Z,5.30
2022-12-05T10:28:42.476Z,7.55
2022-12-05T10:31:15.246Z,5.70
2022-12-05T10:33:48.586Z,5.60
2022-12-05T10:36:16.006Z,6.78
2022-12-05T10:38:45.069Z,6.47
2022-12-05T10:41:14.665Z,7.10
2022-12-05T10:43:46.131Z,6.22
2022-12-05T10:46:17.402Z,6.05
2022-12-05T10:48:45.105Z,6.90
2022-12-05T10:51:16.618Z,5.32
2022-12-05T10:53:50.922Z,5.78
2022-12-05T10:56:41.970Z,5.10
2022-12-05T10:59:12.736Z,6.85
2022-12-05T11:01:46.899Z,6.65
2022-12-05T11:04:30.901Z,6.18
2022-12-05T11:07:02.935Z,6.75
2022-12-05T11:09:33.310Z,5.53
2022-12-05T11:12:06.062Z,6.55
2022-12-05T11:14:35.797Z,10.80
2022-12-05T11:17:05.353Z,7.88
2022-12-05T11:19:35.655Z,8.55
2022-12-05T11:22:04.895Z,22.02
2022-12-05T11:24:34.792Z,11.63
2022-12-05T11:27:17.369Z,12.38
2022-12-05T11:29:57.998Z,9.82
2022-12-05T11:32:28.501Z,13.35
2022-12-05T11:35:13.985Z,23.35
2022-12-05T11:37:56.817Z,15.63
2022-12-05T11:40:36.544Z,10.02
2022-12-05T11:43:24.292Z,13.73
2022-12-05T11:46:10.326Z,8.52
2022-12-05T11:49:12.114Z,7.95
2022-12-05T11:51:49.168Z,5.90
2022-12-05T11:55:05.334Z,7.03
2022-12-05T11:57:44.147Z,7.50
2022-12-05T12:00:22.714Z,7.32
2022-12-05T12:03:18.174Z,5.35
2022-12-05T12:05:53.099Z,5.82
2022-12-05T12:08:25.844Z,6.30
2022-12-05T12:11:02.309Z,8.00
2022-12-05T12:13:38.849Z,7.10
2022-12-05T12:16:15.783Z,7.10
2022-12-05T12:19:03.089Z,7.25
2022-12-05T12:22:00.621Z,6.43
2022-12-05T12:24:34.429Z,7.88
2022-12-05T12:27:04.634Z,8.82
2022-12-05T12:30:01.871Z,6.90
2022-12-05T12:32:38.557Z,8.23
2022-12-05T12:35:29.344Z,8.23
2022-12-05T12:38:51.623Z,8.73
2022-12-05T12:41:52.937Z,7.10
2022-12-05T12:44:52.611Z,8.27
2022-12-05T12:47:40.152Z,7.65
2022-12-05T12:50:17.760Z,8.43
2022-12-05T12:53:14.952Z,9.88
2022-12-05T12:56:05.665Z,8.73
2022-12-05T12:58:57.585Z,7.93
2022-12-05T13:02:03.813Z,7.78
2022-12-05T13:04:42.097Z,8.40
2022-12-05T13:07:19.242Z,8.73
2022-12-05T13:09:55.827Z,8.52
2022-12-05T13:12:31.795Z,10.70
2022-12-05T13:15:09.296Z,10.63
2022-12-05T13:17:41.848Z,11.32
2022-12-05T13:20:36.352Z,9.80
2022-12-05T13:23:08.388Z,9.77
2022-12-05T13:25:39.287Z,9.23
2022-12-05T13:28:21.321Z,8.45
2022-12-05T13:31:06.523Z,8.05
2022-12-05T13:33:49.874Z,9.60
2022-12-05T13:36:42.982Z,9.00
2022-12-05T13:39:31.770Z,10.82
2022-12-05T13:42:15.343Z,10.88
2022-12-05T13:44:47.306Z,10.40
2022-12-05T13:47:34.869Z,10.85
2022-12-05T13:50:16.800Z,9.80
2022-12-05T13:52:50.022Z,10.88
2022-12-05T13:55:20.434Z,9.10
2022-12-05T13:57:51.969Z,9.45
2022-12-05T14:00:28.543Z,9.38
2022-12-05T14:02:58.546Z,10.77
2022-12-05T14:05:46.104Z,10.77
2022-12-05T14:08:32.168Z,12.50
2022-12-05T14:10:59.652Z,21.02
2022-12-05T14:13:27.223Z,21.98
2022-12-05T14:16:15.253Z,23.25
2022-12-05T14:19:06.312Z,19.80
2022-12-05T14:22:06.510Z,20.52
2022-12-05T14:25:00.121Z,15.93
2022-12-05T14:27:30.423Z,14.52
2022-12-05T14:30:12.579Z,17.70
2022-12-05T14:32:42.672Z,20.70
2022-12-05T14:35:17.055Z,16.92
2022-12-05T14:37:58.704Z,13.45
2022-12-05T14:40:40.612Z,14.55
2022-12-05T14:43:30.867Z,15.20
2022-12-05T14:46:29.381Z,16.60
2022-12-05T14:48:56.878Z,15.63
2022-12-05T14:51:30.265Z,16.38
2022-12-05T14:54:10.476Z,14.63
2022-12-05T14:56:44.049Z,16.42
2022-12-05T14:59:17.235Z,17.88
2022-12-05T15:01:49.585Z,17.08
2022-12-05T15:04:42.443Z,15.63
2022-12-05T15:07:23.183Z,17.23
2022-12-05T15:10:38.823Z,19.73
2022-12-05T15:13:20.505Z,16.80
2022-12-05T15:16:19.597Z,15.55
2022-12-05T15:18:51.165Z,14.43
2022-12-05T15:21:26.587Z,15.38
2022-12-05T15:23:59.572Z,19.10
2022-12-05T15:26:47.160Z,17.73
2022-12-05T15:29:23.278Z,15.38
2022-12-05T15:32:02.622Z,15.98
2022-12-05T15:34:38.113Z,16.63
2022-12-05T15:37:20.677Z,14.35
2022-12-05T15:39:58.899Z,13.55
2022-12-05T15:42:30.111Z,14.88
2022-12-05T15:45:23.710Z,15.07
2022-12-05T15:47:56.832Z,15.48
2022-12-05T15:50:38.471Z,14.70
2022-12-05T15:53:13.635Z,13.77
2022-12-05T15:55:49.899Z,15.07
2022-12-05T15:58:31.792Z,14.43
2022-12-05T16:01:05.442Z,13.80
2022-12-05T16:03:47.604Z,13.98
2022-12-05T16:06:18.491Z,14.70
2022-12-05T16:08:50.850Z,15.15
2022-12-05T16:11:18.516Z,16.45
2022-12-05T16:13:51.174Z,15.38
2022-12-05T16:16:29.931Z,16.70
2022-12-05T16:19:02.946Z,22.73
2022-12-05T16:21:37.412Z,44.17
2022-12-05T16:24:08.472Z,20.60
2022-12-05T16:26:38.716Z,15.98
2022-12-05T16:29:06.302Z,30.25
2022-12-05T16:31:34.271Z,26.45
2022-12-05T16:34:06.881Z,17.90
2022-12-05T16:36:35.261Z,16.27
2022-12-05T16:39:17.786Z,23.65
2022-12-05T16:41:47.249Z,23.17
2022-12-05T16:44:53.734Z,22.35
2022-12-05T16:47:26.723Z,17.05
2022-12-05T16:49:54.110Z,15.13
2022-12-05T16:52:21.801Z,18.10
2022-12-05T16:54:50.450Z,19.55
2022-12-05T16:57:17.937Z,17.48
2022-12-05T16:59:48.402Z,18.02
2022-12-05T17:02:18.129Z,18.38
2022-12-05T17:04:47.071Z,17.25
2022-12-05T17:07:14.420Z,18.00
2022-12-05T17:09:41.820Z,19.13
2022-12-05T17:12:21.714Z,20.58
2022-12-05T17:17:18.101Z,12.90
2022-12-05T17:19:45.458Z,14.55
2022-12-05T17:22:15.474Z,13.35
2022-12-05T17:24:43.201Z,11.45
2022-12-05T17:27:11.862Z,10.80
2022-12-05T17:29:39.296Z,10.73
2022-12-05T17:32:06.611Z,11.88
2022-12-05T17:34:33.928Z,10.65
2022-12-05T17:37:01.266Z,10.68
2022-12-05T17:39:29.094Z,10.68
2022-12-05T17:41:56.588Z,11.45
2022-12-05T17:44:24.048Z,10.10
2022-12-05T17:46:51.651Z,11.10
2022-12-05T17:49:20.054Z,11.48
2022-12-05T17:52:20.212Z,11.15
2022-12-05T17:54:35.442Z,12.30
2022-12-05T17:57:02.804Z,10.93
2022-12-05T17:59:30.167Z,11.88
2022-12-05T18:01:57.985Z,11.32
2022-12-05T18:04:25.425Z,14.32
2022-12-05T18:06:52.694Z,16.52
2022-12-05T18:09:20.068Z,18.60
2022-12-05T18:11:47.425Z,17.73
2022-12-05T18:14:14.855Z,18.40
2022-12-05T18:16:42.305Z,17.88
2022-12-05T18:19:09.757Z,16.48
2022-12-05T18:21:37.984Z,15.82
2022-12-05T18:24:05.423Z,14.20
2022-12-05T18:26:32.830Z,14.00
2022-12-05T18:29:00.135Z,13.57
2022-12-05T18:31:27.519Z,14.13
2022-12-05T18:33:54.849Z,17.55
2022-12-05T18:36:22.972Z,15.25
2022-12-05T18:38:52.006Z,17.67
2022-12-05T18:41:20.158Z,15.52
2022-12-05T18:43:47.550Z,16.52
2022-12-05T18:46:15.088Z,13.68
2022-12-05T18:48:47.194Z,14.63
2022-12-05T18:51:17.373Z,13.13
2022-12-05T18:53:52.272Z,12.98
2022-12-05T18:56:24.231Z,13.40
2022-12-05T18:58:58.242Z,13.20
2022-12-05T19:01:27.337Z,13.27
2022-12-05T19:03:56.557Z,14.27
2022-12-05T19:06:26.461Z,12.40
2022-12-05T19:11:23.750Z,11.20
2022-12-05T19:13:55.059Z,12.32
2022-12-05T19:16:22.784Z,12.38
2022-12-05T19:18:55.169Z,12.98
2022-12-05T19:21:24.329Z,14.63
2022-12-05T19:23:51.737Z,16.07
2022-12-05T19:26:19.061Z,17.00
2022-12-05T19:28:46.794Z,15.77
2022-12-05T19:31:16.651Z,15.52
2022-12-05T19:33:47.192Z,17.40
2022-12-05T19:36:15.888Z,17.15
2022-12-05T19:38:44.980Z,14.77
2022-12-05T19:41:14.667Z,14.37
2022-12-05T19:43:43.309Z,13.73
2022-12-05T19:46:21.815Z,12.55
2022-12-05T19:48:49.602Z,13.32
2022-12-05T19:51:17.235Z,14.32
2022-12-05T19:53:45.013Z,14.20
2022-12-05T19:56:18.443Z,13.10
2022-12-05T19:58:46.526Z,12.52
2022-12-05T20:01:21.162Z,12.45
2022-12-05T20:04:02.942Z,12.90
2022-12-05T20:06:33.054Z,12.48
2022-12-05T20:09:00.798Z,12.73
2022-12-05T20:11:29.243Z,13.73
2022-12-05T20:13:58.683Z,13.70
2022-12-05T20:16:27.795Z,12.43
2022-12-05T20:18:59.048Z,11.88
2022-12-05T20:21:30.172Z,11.90
2022-12-05T20:24:01.011Z,11.88
2022-12-05T20:26:31.531Z,11.80
2022-12-05T20:28:59.928Z,11.65
2022-12-05T20:31:31.405Z,11.02
2022-12-05T20:33:59.090Z,11.10
2022-12-05T20:36:29.806Z,10.02
2022-12-05T20:39:01.271Z,10.35
2022-12-05T20:41:28.640Z,10.88
2022-12-05T20:43:59.882Z,10.10
2022-12-05T20:46:28.604Z,11.30
2022-12-05T20:48:56.608Z,10.57
2022-12-05T20:51:27.036Z,10.82
2022-12-05T20:53:54.426Z,10.32
2022-12-05T20:56:25.374Z,10.70
2022-12-05T20:58:54.527Z,11.18
2022-12-05T21:01:23.243Z,12.30
2022-12-05T21:03:52.110Z,12.40
2022-12-05T21:06:24.110Z,12.02
2022-12-05T21:08:52.088Z,11.98
2022-12-05T21:11:20.661Z,13.77
2022-12-05T21:13:48.028Z,13.80
2022-12-05T21:16:18.327Z,13.88
2022-12-05T21:18:46.689Z,13.30
2022-12-05T21:21:16.449Z,13.65
2022-12-05T21:23:45.644Z,13.45
2022-12-05T21:26:15.501Z,13.77
2022-12-05T21:31:22.741Z,14.25
2022-12-05T21:33:52.749Z,14.55
2022-12-05T21:36:20.873Z,13.75
2022-12-05T21:38:52.367Z,14.35
2022-12-05T21:41:26.506Z,14.43
2022-12-05T21:43:55.615Z,13.35
2022-12-05T21:46:26.596Z,12.77
2022-12-05T21:48:54.660Z,11.90
2022-12-05T21:51:22.611Z,12.77
2022-12-05T21:53:50.718Z,11.88
2022-12-05T21:56:22.701Z,13.75
2022-12-05T21:58:50.663Z,12.98
2022-12-05T22:01:21.806Z,11.95
2022-12-05T22:03:53.074Z,13.05
2022-12-05T22:06:20.510Z,11.45
2022-12-05T22:08:48.039Z,13.15
2022-12-05T22:11:18.175Z,14.07
2022-12-05T22:13:46.149Z,14.82
2022-12-05T22:16:13.642Z,14.18
2022-12-05T22:18:41.742Z,15.30
2022-12-05T22:21:12.938Z,14.68
2022-12-05T22:23:40.390Z,12.95
2022-12-05T22:26:13.007Z,13.82
2022-12-05T22:28:40.497Z,13.73
2022-12-05T22:31:12.114Z,13.73
2022-12-05T22:33:39.895Z,13.70
2022-12-05T22:36:10.197Z,12.40
2022-12-05T22:38:39.826Z,12.70
2022-12-05T22:41:14.290Z,12.40
2022-12-05T22:43:43.464Z,12.68
2022-12-05T22:46:14.685Z,12.93
2022-12-05T22:48:42.062Z,11.52
2022-12-05T22:51:09.845Z,11.43
2022-12-05T22:53:37.734Z,11.00
2022-12-05T22:56:07.783Z,10.13
2022-12-05T22:58:36.121Z,11.07
2022-12-05T23:01:15.459Z,11.35
2022-12-05T23:03:44.392Z,11.02
2022-12-05T23:06:13.487Z,10.30
2022-12-05T23:08:43.750Z,11.23
2022-12-05T23:11:11.913Z,10.20
2022-12-05T23:13:39.811Z,10.85
2022-12-05T23:16:14.945Z,9.95
2022-12-05T23:18:49.124Z,10.32
2022-12-05T23:21:27.286Z,9.85
2022-12-05T23:23:59.880Z,10.88
2022-12-05T23:26:34.209Z,10.60
2022-12-05T23:29:01.657Z,9.65
2022-12-05T23:31:29.330Z,9.38
2022-12-05T23:34:02.718Z,9.82
2022-12-05T23:36:32.545Z,9.60
2022-12-05T23:39:00.112Z,10.00
2022-12-05T23:41:27.573Z,10.40
2022-12-05T23:43:55.519Z,9.57
2022-12-05T23:46:25.238Z,9.75
2022-12-05T23:48:52.779Z,9.82
2022-12-05T23:51:28.993Z,10.38
2022-12-05T23:53:58.938Z,9.35
2022-12-05T23:56:31.961Z,8.90
2022-12-05T23:59:00.097Z,9.48
